sensor_id;sensor_type;location;lat;lon;timestamp;pressure;altitude;pressure_sealevel;temperature;humidity
70302;BME280;57706;56.326;43.882;2022-11-11T00:01:55;101039.81;;;7.89;85.40
70302;BME280;57706;56.326;43.882;2022-11-11T00:04:39;101038.16;;;7.88;85.62
70302;BME280;57706;56.326;43.882;2022-11-11T00:07:24;101045.03;;;7.89;85.90
70302;BME280;57706;56.326;43.882;2022-11-11T00:10:08;101041.28;;;7.82;86.74
70302;BME280;57706;56.326;43.882;2022-11-11T00:12:53;101035.53;;;7.67;88.14
70302;BME280;57706;56.326;43.882;2022-11-11T00:15:38;101036.50;;;7.66;88.64
70302;BME280;57706;56.326;43.882;2022-11-11T00:18:23;101041.38;;;7.59;89.48
70302;BME280;57706;56.326;43.882;2022-11-11T00:21:26;101035.34;;;7.58;89.63
70302;BME280;57706;56.326;43.882;2022-11-11T00:24:29;101039.53;;;7.50;90.26
70302;BME280;57706;56.326;43.882;2022-11-11T00:27:33;101037.00;;;7.60;89.80
70302;BME280;57706;56.326;43.882;2022-11-11T00:30:18;101044.19;;;7.67;89.80
70302;BME280;57706;56.326;43.882;2022-11-11T00:33:02;101043.56;;;7.54;90.02
70302;BME280;57706;56.326;43.882;2022-11-11T00:35:46;101039.94;;;7.66;89.87
70302;BME280;57706;56.326;43.882;2022-11-11T00:38:37;101040.44;;;7.60;89.35
70302;BME280;57706;56.326;43.882;2022-11-11T00:41:31;101032.91;;;7.46;89.99
70302;BME280;57706;56.326;43.882;2022-11-11T00:44:17;101028.84;;;7.53;89.91
70302;BME280;57706;56.326;43.882;2022-11-11T00:47:01;101038.28;;;7.65;88.70
70302;BME280;57706;56.326;43.882;2022-11-11T00:50:08;101032.66;;;7.49;89.13
70302;BME280;57706;56.326;43.882;2022-11-11T00:53:17;101040.00;;;7.55;89.17
70302;BME280;57706;56.326;43.882;2022-11-11T00:56:02;101041.47;;;7.69;88.14
70302;BME280;57706;56.326;43.882;2022-11-11T00:58:46;101039.53;;;7.71;87.65
70302;BME280;57706;56.326;43.882;2022-11-11T01:01:31;101043.31;;;7.57;88.32
70302;BME280;57706;56.326;43.882;2022-11-11T01:04:16;101038.28;;;7.65;87.34
70302;BME280;57706;56.326;43.882;2022-11-11T01:07:00;101041.41;;;7.80;86.92
70302;BME280;57706;56.326;43.882;2022-11-11T01:09:44;101030.19;;;7.68;87.26
70302;BME280;57706;56.326;43.882;2022-11-11T01:12:30;101024.94;;;7.68;87.01
70302;BME280;57706;56.326;43.882;2022-11-11T01:15:14;101018.56;;;7.61;87.19
70302;BME280;57706;56.326;43.882;2022-11-11T01:17:58;101013.66;;;7.68;86.62
70302;BME280;57706;56.326;43.882;2022-11-11T01:20:43;101020.34;;;7.61;87.25
70302;BME280;57706;56.326;43.882;2022-11-11T01:23:28;101011.88;;;7.68;87.03
70302;BME280;57706;56.326;43.882;2022-11-11T01:29:00;101016.53;;;7.65;87.17
70302;BME280;57706;56.326;43.882;2022-11-11T01:31:45;101016.94;;;7.91;84.99
70302;BME280;57706;56.326;43.882;2022-11-11T01:34:29;101013.25;;;7.72;85.97
70302;BME280;57706;56.326;43.882;2022-11-11T01:37:13;101016.34;;;7.56;86.58
70302;BME280;57706;56.326;43.882;2022-11-11T01:39:58;101014.31;;;7.91;84.95
70302;BME280;57706;56.326;43.882;2022-11-11T01:43:20;101008.03;;;7.72;85.37
70302;BME280;57706;56.326;43.882;2022-11-11T01:45:58;101018.28;;;7.85;84.86
70302;BME280;57706;56.326;43.882;2022-11-11T01:48:48;101008.47;;;7.78;85.11
70302;BME280;57706;56.326;43.882;2022-11-11T01:52:01;101015.28;;;7.90;84.58
70302;BME280;57706;56.326;43.882;2022-11-11T01:57:45;101012.25;;;7.85;84.99
70302;BME280;57706;56.326;43.882;2022-11-11T02:00:31;101013.63;;;7.89;84.39
70302;BME280;57706;56.326;43.882;2022-11-11T02:03:15;101007.34;;;7.70;85.68
70302;BME280;57706;56.326;43.882;2022-11-11T02:06:01;101007.00;;;7.85;84.96
70302;BME280;57706;56.326;43.882;2022-11-11T02:08:46;101011.91;;;7.78;85.50
70302;BME280;57706;56.326;43.882;2022-11-11T02:11:32;101013.75;;;7.66;85.85
70302;BME280;57706;56.326;43.882;2022-11-11T02:14:48;101009.75;;;7.62;86.43
70302;BME280;57706;56.326;43.882;2022-11-11T02:17:33;101012.69;;;7.48;87.13
70302;BME280;57706;56.326;43.882;2022-11-11T02:20:21;101015.03;;;7.51;87.12
70302;BME280;57706;56.326;43.882;2022-11-11T02:23:31;101007.44;;;7.48;87.13
70302;BME280;57706;56.326;43.882;2022-11-11T02:26:15;101008.72;;;7.53;86.91
70302;BME280;57706;56.326;43.882;2022-11-11T02:29:02;101010.72;;;7.61;86.49
70302;BME280;57706;56.326;43.882;2022-11-11T02:31:48;101008.72;;;7.53;87.03
70302;BME280;57706;56.326;43.882;2022-11-11T02:34:33;101012.38;;;7.62;86.86
70302;BME280;57706;56.326;43.882;2022-11-11T02:37:21;101015.94;;;7.61;86.82
70302;BME280;57706;56.326;43.882;2022-11-11T02:40:06;101006.75;;;7.46;87.53
70302;BME280;57706;56.326;43.882;2022-11-11T02:42:52;101004.84;;;7.48;87.36
70302;BME280;57706;56.326;43.882;2022-11-11T02:45:36;101020.72;;;7.35;88.09
70302;BME280;57706;56.326;43.882;2022-11-11T02:48:21;101016.25;;;7.47;87.78
70302;BME280;57706;56.326;43.882;2022-11-11T02:51:05;101012.47;;;7.39;87.96
70302;BME280;57706;56.326;43.882;2022-11-11T02:53:52;101022.38;;;7.57;86.83
70302;BME280;57706;56.326;43.882;2022-11-11T02:56:41;101011.41;;;7.42;87.11
70302;BME280;57706;56.326;43.882;2022-11-11T02:59:45;101012.41;;;7.29;87.79
70302;BME280;57706;56.326;43.882;2022-11-11T03:02:32;101014.94;;;7.20;88.46
70302;BME280;57706;56.326;43.882;2022-11-11T03:05:16;101008.28;;;7.27;88.30
70302;BME280;57706;56.326;43.882;2022-11-11T03:08:01;101011.09;;;7.35;88.14
70302;BME280;57706;56.326;43.882;2022-11-11T03:10:46;101017.81;;;7.16;88.87
70302;BME280;57706;56.326;43.882;2022-11-11T03:13:30;101016.06;;;7.38;87.96
70302;BME280;57706;56.326;43.882;2022-11-11T03:16:15;101017.78;;;7.28;88.31
70302;BME280;57706;56.326;43.882;2022-11-11T03:19:18;101015.38;;;7.25;88.42
70302;BME280;57706;56.326;43.882;2022-11-11T03:22:03;101013.53;;;7.15;89.37
70302;BME280;57706;56.326;43.882;2022-11-11T03:24:48;101017.84;;;7.05;90.55
70302;BME280;57706;56.326;43.882;2022-11-11T03:27:51;101016.69;;;6.98;90.84
70302;BME280;57706;56.326;43.882;2022-11-11T03:30:37;101018.97;;;6.91;91.33
70302;BME280;57706;56.326;43.882;2022-11-11T03:33:21;101017.38;;;7.11;90.71
70302;BME280;57706;56.326;43.882;2022-11-11T03:36:06;101018.34;;;6.99;91.39
70302;BME280;57706;56.326;43.882;2022-11-11T03:38:50;101016.00;;;6.84;92.22
70302;BME280;57706;56.326;43.882;2022-11-11T03:41:34;101012.47;;;6.74;91.92
70302;BME280;57706;56.326;43.882;2022-11-11T03:44:19;101014.13;;;6.75;92.56
70302;BME280;57706;56.326;43.882;2022-11-11T03:47:03;101011.75;;;6.72;92.44
70302;BME280;57706;56.326;43.882;2022-11-11T03:49:47;101020.53;;;6.82;91.88
70302;BME280;57706;56.326;43.882;2022-11-11T03:52:31;101005.69;;;6.83;91.13
70302;BME280;57706;56.326;43.882;2022-11-11T03:55:16;101009.09;;;6.83;91.21
70302;BME280;57706;56.326;43.882;2022-11-11T03:58:00;101008.84;;;6.98;90.26
70302;BME280;57706;56.326;43.882;2022-11-11T04:00:45;101011.44;;;6.98;89.59
70302;BME280;57706;56.326;43.882;2022-11-11T04:03:30;101018.53;;;7.07;88.85
70302;BME280;57706;56.326;43.882;2022-11-11T04:06:33;101015.72;;;6.99;88.63
70302;BME280;57706;56.326;43.882;2022-11-11T04:09:36;101008.59;;;7.01;88.27
70302;BME280;57706;56.326;43.882;2022-11-11T04:12:40;101024.03;;;7.04;87.94
70302;BME280;57706;56.326;43.882;2022-11-11T04:15:44;101010.00;;;7.05;87.54
70302;BME280;57706;56.326;43.882;2022-11-11T04:18:47;101016.41;;;7.12;87.21
70302;BME280;57706;56.326;43.882;2022-11-11T04:21:50;101017.75;;;7.07;87.42
70302;BME280;57706;56.326;43.882;2022-11-11T04:24:35;101026.16;;;7.10;87.36
70302;BME280;57706;56.326;43.882;2022-11-11T04:27:38;101016.91;;;7.06;87.37
70302;BME280;57706;56.326;43.882;2022-11-11T04:30:22;101021.66;;;7.01;87.12
70302;BME280;57706;56.326;43.882;2022-11-11T04:33:07;101022.69;;;7.10;86.71
70302;BME280;57706;56.326;43.882;2022-11-11T04:35:51;101031.38;;;7.10;86.24
70302;BME280;57706;56.326;43.882;2022-11-11T04:38:35;101027.81;;;7.11;85.84
70302;BME280;57706;56.326;43.882;2022-11-11T04:41:38;101029.00;;;7.07;85.80
70302;BME280;57706;56.326;43.882;2022-11-11T04:44:22;101031.38;;;7.10;85.39
70302;BME280;57706;56.326;43.882;2022-11-11T04:47:25;101033.47;;;7.16;85.11
70302;BME280;57706;56.326;43.882;2022-11-11T04:50:09;101033.00;;;7.23;84.51
70302;BME280;57706;56.326;43.882;2022-11-11T04:52:54;101032.09;;;7.12;85.07
70302;BME280;57706;56.326;43.882;2022-11-11T04:55:40;101035.41;;;7.14;84.74
70302;BME280;57706;56.326;43.882;2022-11-11T04:58:43;101037.91;;;7.16;84.79
70302;BME280;57706;56.326;43.882;2022-11-11T05:01:29;101041.31;;;7.28;84.10
70302;BME280;57706;56.326;43.882;2022-11-11T05:04:43;101048.69;;;7.23;84.17
70302;BME280;57706;56.326;43.882;2022-11-11T05:07:29;101042.06;;;7.19;84.42
70302;BME280;57706;56.326;43.882;2022-11-11T05:10:32;101042.28;;;7.15;84.58
70302;BME280;57706;56.326;43.882;2022-11-11T05:13:16;101041.13;;;7.08;84.93
70302;BME280;57706;56.326;43.882;2022-11-11T05:16:22;101032.72;;;7.26;84.20
70302;BME280;57706;56.326;43.882;2022-11-11T05:19:27;101042.25;;;7.27;84.01
70302;BME280;57706;56.326;43.882;2022-11-11T05:22:36;101045.69;;;7.27;84.02
70302;BME280;57706;56.326;43.882;2022-11-11T05:25:22;101042.97;;;7.29;83.93
70302;BME280;57706;56.326;43.882;2022-11-11T05:28:09;101044.13;;;7.36;83.19
70302;BME280;57706;56.326;43.882;2022-11-11T05:30:53;101032.50;;;7.29;83.18
70302;BME280;57706;56.326;43.882;2022-11-11T05:33:37;101034.00;;;7.10;84.29
70302;BME280;57706;56.326;43.882;2022-11-11T05:36:22;101042.25;;;7.27;83.57
70302;BME280;57706;56.326;43.882;2022-11-11T05:39:07;101033.91;;;7.33;83.04
70302;BME280;57706;56.326;43.882;2022-11-11T05:41:51;101019.13;;;7.11;83.98
70302;BME280;57706;56.326;43.882;2022-11-11T05:44:35;101024.16;;;7.35;83.21
70302;BME280;57706;56.326;43.882;2022-11-11T05:47:20;101028.94;;;7.30;83.22
70302;BME280;57706;56.326;43.882;2022-11-11T05:50:04;101029.41;;;7.35;82.63
70302;BME280;57706;56.326;43.882;2022-11-11T05:52:49;101030.09;;;7.37;82.74
70302;BME280;57706;56.326;43.882;2022-11-11T05:55:33;101033.47;;;7.16;83.88
70302;BME280;57706;56.326;43.882;2022-11-11T05:58:18;101038.97;;;7.13;84.36
70302;BME280;57706;56.326;43.882;2022-11-11T06:01:03;101035.66;;;7.11;84.76
70302;BME280;57706;56.326;43.882;2022-11-11T06:03:47;101040.53;;;7.05;85.12
70302;BME280;57706;56.326;43.882;2022-11-11T06:06:32;101042.53;;;7.12;84.87
70302;BME280;57706;56.326;43.882;2022-11-11T06:09:17;101032.09;;;7.12;85.30
70302;BME280;57706;56.326;43.882;2022-11-11T06:12:01;101035.28;;;7.16;85.45
70302;BME280;57706;56.326;43.882;2022-11-11T06:14:46;101038.28;;;7.00;86.08
70302;BME280;57706;56.326;43.882;2022-11-11T06:17:32;101034.72;;;7.01;86.79
70302;BME280;57706;56.326;43.882;2022-11-11T06:20:17;101031.88;;;6.93;87.37
70302;BME280;57706;56.326;43.882;2022-11-11T06:23:03;101040.94;;;6.88;87.55
70302;BME280;57706;56.326;43.882;2022-11-11T06:25:48;101037.84;;;6.95;87.79
70302;BME280;57706;56.326;43.882;2022-11-11T06:28:53;101030.88;;;6.72;88.48
70302;BME280;57706;56.326;43.882;2022-11-11T06:31:38;101030.75;;;6.85;87.77
70302;BME280;57706;56.326;43.882;2022-11-11T06:34:23;101031.19;;;6.91;87.32
70302;BME280;57706;56.326;43.882;2022-11-11T06:37:07;101037.41;;;6.78;87.63
70302;BME280;57706;56.326;43.882;2022-11-11T06:39:52;101033.56;;;6.94;86.84
70302;BME280;57706;56.326;43.882;2022-11-11T06:42:36;101040.69;;;7.03;85.60
70302;BME280;57706;56.326;43.882;2022-11-11T06:45:22;101030.75;;;6.85;86.08
70302;BME280;57706;56.326;43.882;2022-11-11T06:48:09;101039.13;;;7.00;85.31
70302;BME280;57706;56.326;43.882;2022-11-11T06:50:53;101040.63;;;7.14;84.40
70302;BME280;57706;56.326;43.882;2022-11-11T06:53:38;101029.53;;;6.89;85.65
70302;BME280;57706;56.326;43.882;2022-11-11T06:56:22;101037.38;;;6.89;85.54
70302;BME280;57706;56.326;43.882;2022-11-11T06:59:07;101037.75;;;6.85;86.39
70302;BME280;57706;56.326;43.882;2022-11-11T07:01:51;101038.31;;;6.88;86.59
70302;BME280;57706;56.326;43.882;2022-11-11T07:04:35;101044.88;;;6.71;87.14
70302;BME280;57706;56.326;43.882;2022-11-11T07:07:19;101053.59;;;6.60;87.82
70302;BME280;57706;56.326;43.882;2022-11-11T07:10:04;101047.16;;;6.65;87.55
70302;BME280;57706;56.326;43.882;2022-11-11T07:12:50;101043.81;;;6.74;87.11
70302;BME280;57706;56.326;43.882;2022-11-11T07:15:35;101044.66;;;6.74;87.29
70302;BME280;57706;56.326;43.882;2022-11-11T07:18:20;101039.94;;;6.57;88.01
70302;BME280;57706;56.326;43.882;2022-11-11T07:21:04;101049.06;;;6.51;89.75
70302;BME280;57706;56.326;43.882;2022-11-11T07:23:49;101048.81;;;6.43;89.85
70302;BME280;57706;56.326;43.882;2022-11-11T07:26:33;101044.06;;;6.48;90.20
70302;BME280;57706;56.326;43.882;2022-11-11T07:29:18;101036.25;;;6.37;91.62
70302;BME280;57706;56.326;43.882;2022-11-11T07:32:03;101052.25;;;6.20;91.78
70302;BME280;57706;56.326;43.882;2022-11-11T07:34:47;101051.19;;;6.23;92.65
70302;BME280;57706;56.326;43.882;2022-11-11T07:37:35;101042.19;;;6.27;92.08
70302;BME280;57706;56.326;43.882;2022-11-11T07:40:19;101045.72;;;6.26;92.58
70302;BME280;57706;56.326;43.882;2022-11-11T07:43:04;101046.09;;;6.22;93.34
70302;BME280;57706;56.326;43.882;2022-11-11T07:45:48;101032.59;;;6.39;92.41
70302;BME280;57706;56.326;43.882;2022-11-11T07:48:32;101026.28;;;6.30;91.97
70302;BME280;57706;56.326;43.882;2022-11-11T07:51:17;101041.34;;;6.27;92.06
70302;BME280;57706;56.326;43.882;2022-11-11T07:54:01;101043.38;;;6.23;92.27
70302;BME280;57706;56.326;43.882;2022-11-11T07:56:45;101030.91;;;6.38;91.67
70302;BME280;57706;56.326;43.882;2022-11-11T07:59:29;101039.09;;;6.22;91.64
70302;BME280;57706;56.326;43.882;2022-11-11T08:02:14;101037.09;;;6.14;92.47
70302;BME280;57706;56.326;43.882;2022-11-11T08:04:58;101033.88;;;6.33;91.71
70302;BME280;57706;56.326;43.882;2022-11-11T08:07:42;101037.06;;;6.26;91.23
70302;BME280;57706;56.326;43.882;2022-11-11T08:10:27;101028.88;;;6.30;92.01
70302;BME280;57706;56.326;43.882;2022-11-11T08:13:11;101026.28;;;6.30;92.21
70302;BME280;57706;56.326;43.882;2022-11-11T08:16:15;101030.81;;;6.28;92.36
70302;BME280;57706;56.326;43.882;2022-11-11T08:18:59;101033.28;;;6.30;91.81
70302;BME280;57706;56.326;43.882;2022-11-11T08:21:43;101030.19;;;6.25;92.24
70302;BME280;57706;56.326;43.882;2022-11-11T08:24:27;101030.56;;;6.20;91.55
70302;BME280;57706;56.326;43.882;2022-11-11T08:27:12;101022.25;;;6.38;90.34
70302;BME280;57706;56.326;43.882;2022-11-11T08:29:56;101028.66;;;6.45;90.12
70302;BME280;57706;56.326;43.882;2022-11-11T08:32:40;101017.38;;;6.44;91.00
70302;BME280;57706;56.326;43.882;2022-11-11T08:35:25;101025.09;;;6.46;90.40
70302;BME280;57706;56.326;43.882;2022-11-11T08:38:10;101012.25;;;6.43;90.90
70302;BME280;57706;56.326;43.882;2022-11-11T08:40:59;101015.84;;;6.30;90.84
70302;BME280;57706;56.326;43.882;2022-11-11T08:43:44;101020.34;;;6.40;90.65
70302;BME280;57706;56.326;43.882;2022-11-11T08:46:28;101023.66;;;6.42;90.25
70302;BME280;57706;56.326;43.882;2022-11-11T08:49:13;101025.56;;;6.40;90.11
70302;BME280;57706;56.326;43.882;2022-11-11T08:51:57;101011.81;;;6.38;90.37
70302;BME280;57706;56.326;43.882;2022-11-11T08:54:41;101016.06;;;6.39;90.05
70302;BME280;57706;56.326;43.882;2022-11-11T08:57:25;101008.50;;;6.36;90.23
70302;BME280;57706;56.326;43.882;2022-11-11T09:00:11;101002.03;;;6.51;90.28
70302;BME280;57706;56.326;43.882;2022-11-11T09:03:02;100993.75;;;6.46;90.00
70302;BME280;57706;56.326;43.882;2022-11-11T09:05:48;100999.19;;;6.43;90.00
70302;BME280;57706;56.326;43.882;2022-11-11T09:08:33;100999.69;;;6.48;90.14
70302;BME280;57706;56.326;43.882;2022-11-11T09:11:17;101001.09;;;6.64;88.88
70302;BME280;57706;56.326;43.882;2022-11-11T09:14:01;100996.59;;;6.54;89.26
70302;BME280;57706;56.326;43.882;2022-11-11T09:16:45;101001.94;;;6.64;89.11
70302;BME280;57706;56.326;43.882;2022-11-11T09:19:30;101001.72;;;6.56;88.26
70302;BME280;57706;56.326;43.882;2022-11-11T09:22:14;101004.56;;;6.41;89.82
70302;BME280;57706;56.326;43.882;2022-11-11T09:24:58;100992.31;;;6.42;89.39
70302;BME280;57706;56.326;43.882;2022-11-11T09:27:43;101004.44;;;6.54;89.33
70302;BME280;57706;56.326;43.882;2022-11-11T09:30:28;100992.09;;;6.45;89.87
70302;BME280;57706;56.326;43.882;2022-11-11T09:33:12;100987.56;;;6.58;88.91
70302;BME280;57706;56.326;43.882;2022-11-11T09:35:59;100992.28;;;6.65;88.27
70302;BME280;57706;56.326;43.882;2022-11-11T09:38:44;101000.75;;;6.57;88.72
70302;BME280;57706;56.326;43.882;2022-11-11T09:41:53;101003.22;;;6.58;88.94
70302;BME280;57706;56.326;43.882;2022-11-11T09:47:53;100988.75;;;6.43;89.02
70302;BME280;57706;56.326;43.882;2022-11-11T09:50:40;101000.53;;;6.49;89.06
70302;BME280;57706;56.326;43.882;2022-11-11T09:53:35;100992.56;;;6.39;89.21
70302;BME280;57706;56.326;43.882;2022-11-11T09:56:23;101000.38;;;6.50;88.87
70302;BME280;57706;56.326;43.882;2022-11-11T09:59:17;100993.75;;;6.46;88.33
70302;BME280;57706;56.326;43.882;2022-11-11T10:02:13;100980.44;;;6.49;88.33
70302;BME280;57706;56.326;43.882;2022-11-11T10:05:08;100984.25;;;6.56;87.81
70302;BME280;57706;56.326;43.882;2022-11-11T10:08:00;100983.78;;;6.40;88.34
70302;BME280;57706;56.326;43.882;2022-11-11T10:10:50;100981.78;;;6.32;89.44
70302;BME280;57706;56.326;43.882;2022-11-11T10:13:36;100983.09;;;6.38;88.51
70302;BME280;57706;56.326;43.882;2022-11-11T10:19:30;100987.59;;;6.36;88.61
70302;BME280;57706;56.326;43.882;2022-11-11T10:22:21;100989.94;;;6.50;88.15
70302;BME280;57706;56.326;43.882;2022-11-11T10:27:58;100992.09;;;6.33;88.56
70302;BME280;57706;56.326;43.882;2022-11-11T10:30:44;100980.66;;;6.57;87.40
70302;BME280;57706;56.326;43.882;2022-11-11T10:33:41;100996.81;;;6.51;87.31
70302;BME280;57706;56.326;43.882;2022-11-11T10:36:29;100999.91;;;6.56;87.52
70302;BME280;57706;56.326;43.882;2022-11-11T10:39:19;100983.06;;;6.49;87.42
70302;BME280;57706;56.326;43.882;2022-11-11T10:42:14;100987.81;;;6.55;86.64
70302;BME280;57706;56.326;43.882;2022-11-11T10:45:00;100994.19;;;6.51;87.39
70302;BME280;57706;56.326;43.882;2022-11-11T10:48:04;100991.59;;;6.51;87.16
70302;BME280;57706;56.326;43.882;2022-11-11T10:50:52;100991.72;;;6.38;87.32
70302;BME280;57706;56.326;43.882;2022-11-11T10:56:59;100989.56;;;6.55;87.31
70302;BME280;57706;56.326;43.882;2022-11-11T11:02:54;100989.47;;;6.33;87.78
70302;BME280;57706;56.326;43.882;2022-11-11T11:09:05;100997.31;;;6.22;88.20
70302;BME280;57706;56.326;43.882;2022-11-11T11:12:35;100997.81;;;6.04;88.96
70302;BME280;57706;56.326;43.882;2022-11-11T11:15:22;101004.22;;;6.23;88.29
70302;BME280;57706;56.326;43.882;2022-11-11T11:18:11;100996.25;;;6.25;88.34
70302;BME280;57706;56.326;43.882;2022-11-11T11:21:04;100987.47;;;6.49;86.70
70302;BME280;57706;56.326;43.882;2022-11-11T11:23:49;100991.97;;;6.35;87.38
70302;BME280;57706;56.326;43.882;2022-11-11T11:26:41;100995.88;;;6.41;86.63
70302;BME280;57706;56.326;43.882;2022-11-11T11:29:38;101002.28;;;6.48;86.48
70302;BME280;57706;56.326;43.882;2022-11-11T11:32:31;101007.53;;;6.37;86.99
70302;BME280;57706;56.326;43.882;2022-11-11T11:35:42;101012.88;;;6.35;86.73
70302;BME280;57706;56.326;43.882;2022-11-11T11:38:48;101013.47;;;6.16;87.54
70302;BME280;57706;56.326;43.882;2022-11-11T11:44:31;101030.56;;;6.20;87.38
70302;BME280;57706;56.326;43.882;2022-11-11T11:47:19;101016.06;;;6.39;86.47
70302;BME280;57706;56.326;43.882;2022-11-11T11:50:23;101008.72;;;6.32;87.38
70302;BME280;57706;56.326;43.882;2022-11-11T11:56:38;101025.81;;;6.02;88.36
70302;BME280;57706;56.326;43.882;2022-11-11T11:59:36;101026.25;;;6.08;88.18
70302;BME280;57706;56.326;43.882;2022-11-11T12:02:47;101020.94;;;6.09;88.11
70302;BME280;57706;56.326;43.882;2022-11-11T12:05:43;101005.16;;;6.11;88.07
70302;BME280;57706;56.326;43.882;2022-11-11T12:08:53;101017.03;;;6.15;87.66
70302;BME280;57706;56.326;43.882;2022-11-11T12:11:47;101030.50;;;5.97;88.50
70302;BME280;57706;56.326;43.882;2022-11-11T12:17:47;101018.16;;;5.99;88.76
70302;BME280;57706;56.326;43.882;2022-11-11T12:23:48;101026.94;;;5.98;88.55
70302;BME280;57706;56.326;43.882;2022-11-11T12:26:53;101025.97;;;5.88;89.74
70302;BME280;57706;56.326;43.882;2022-11-11T12:44:26;101020.31;;;5.94;90.69
70302;BME280;57706;56.326;43.882;2022-11-11T12:57:22;101014.16;;;6.06;89.38
70302;BME280;57706;56.326;43.882;2022-11-11T12:59:52;101011.03;;;5.90;90.71
70302;BME280;57706;56.326;43.882;2022-11-11T13:05:35;100997.75;;;5.93;90.63
70302;BME280;57706;56.326;43.882;2022-11-11T13:15:00;100994.56;;;6.01;90.23
70302;BME280;57706;56.326;43.882;2022-11-11T13:17:46;100998.75;;;6.03;90.46
70302;BME280;57706;56.326;43.882;2022-11-11T13:23:15;101004.25;;;5.87;91.35
70302;BME280;57706;56.326;43.882;2022-11-11T13:26:03;100993.25;;;5.95;90.86
70302;BME280;57706;56.326;43.882;2022-11-11T13:28:50;100997.25;;;5.76;91.77
70302;BME280;57706;56.326;43.882;2022-11-11T13:31:40;100995.50;;;5.88;91.60
70302;BME280;57706;56.326;43.882;2022-11-11T13:34:27;100986.41;;;6.05;90.98
70302;BME280;57706;56.326;43.882;2022-11-11T13:37:25;100973.69;;;6.01;90.89
70302;BME280;57706;56.326;43.882;2022-11-11T13:40:33;100980.44;;;5.92;91.64
70302;BME280;57706;56.326;43.882;2022-11-11T13:43:23;100986.41;;;6.05;91.36
70302;BME280;57706;56.326;43.882;2022-11-11T13:52:23;100970.97;;;6.25;90.47
70302;BME280;57706;56.326;43.882;2022-11-11T13:55:25;100959.09;;;5.98;91.58
70302;BME280;57706;56.326;43.882;2022-11-11T13:58:24;100963.72;;;5.95;92.12
70302;BME280;57706;56.326;43.882;2022-11-11T14:01:10;100963.81;;;5.93;92.00
70302;BME280;57706;56.326;43.882;2022-11-11T14:03:58;100965.97;;;5.99;92.34
70302;BME280;57706;56.326;43.882;2022-11-11T14:06:51;100957.69;;;5.94;92.62
70302;BME280;57706;56.326;43.882;2022-11-11T14:09:58;100958.84;;;6.01;92.46
70302;BME280;57706;56.326;43.882;2022-11-11T14:12:51;100959.38;;;6.06;92.27
70302;BME280;57706;56.326;43.882;2022-11-11T14:18:35;100949.84;;;5.83;93.30
70302;BME280;57706;56.326;43.882;2022-11-11T14:22:01;100963.72;;;5.95;93.68
70302;BME280;57706;56.326;43.882;2022-11-11T14:24:46;100950.19;;;6.01;92.88
70302;BME280;57706;56.326;43.882;2022-11-11T14:27:32;100956.00;;;5.93;93.16
70302;BME280;57706;56.326;43.882;2022-11-11T14:30:36;100948.41;;;6.01;93.04
70302;BME280;57706;56.326;43.882;2022-11-11T14:42:00;100946.06;;;6.10;93.08
70302;BME280;57706;56.326;43.882;2022-11-11T14:44:44;100945.63;;;6.04;92.86
70302;BME280;57706;56.326;43.882;2022-11-11T14:47:30;100952.25;;;6.20;92.37
70302;BME280;57706;56.326;43.882;2022-11-11T14:53:19;100936.94;;;6.27;92.00
70302;BME280;57706;56.326;43.882;2022-11-11T14:56:13;100944.88;;;6.14;92.69
70302;BME280;57706;56.326;43.882;2022-11-11T14:59:05;100949.75;;;6.18;92.77
70302;BME280;57706;56.326;43.882;2022-11-11T15:01:52;100949.16;;;6.15;92.85
70302;BME280;57706;56.326;43.882;2022-11-11T15:04:37;100945.13;;;6.22;92.67
70302;BME280;57706;56.326;43.882;2022-11-11T15:10:57;100955.81;;;6.08;93.27
70302;BME280;57706;56.326;43.882;2022-11-11T15:17:23;100966.25;;;6.19;93.40
70302;BME280;57706;56.326;43.882;2022-11-11T15:26:04;100954.34;;;6.26;93.08
70302;BME280;57706;56.326;43.882;2022-11-11T15:35:41;100959.34;;;6.18;93.29
70302;BME280;57706;56.326;43.882;2022-11-11T15:38:29;100963.03;;;6.27;93.38
70302;BME280;57706;56.326;43.882;2022-11-11T15:41:27;100965.97;;;6.33;93.17
70302;BME280;57706;56.326;43.882;2022-11-11T15:44:27;100960.19;;;6.18;93.80
70302;BME280;57706;56.326;43.882;2022-11-11T15:47:14;100966.97;;;6.21;93.82
70302;BME280;57706;56.326;43.882;2022-11-11T15:49:59;100950.09;;;6.25;93.87
70302;BME280;57706;56.326;43.882;2022-11-11T15:52:43;100957.47;;;6.20;94.01
70302;BME280;57706;56.326;43.882;2022-11-11T15:55:30;100943.59;;;6.31;93.15
70302;BME280;57706;56.326;43.882;2022-11-11T15:58:23;100954.25;;;6.28;93.60
70302;BME280;57706;56.326;43.882;2022-11-11T16:01:10;100959.00;;;6.34;93.51
70302;BME280;57706;56.326;43.882;2022-11-11T16:03:56;100951.97;;;6.46;92.74
70302;BME280;57706;56.326;43.882;2022-11-11T16:06:41;100952.34;;;6.30;93.45
70302;BME280;57706;56.326;43.882;2022-11-11T16:09:27;100943.69;;;6.18;94.11
70302;BME280;57706;56.326;43.882;2022-11-11T16:12:18;100942.25;;;6.37;93.30
70302;BME280;57706;56.326;43.882;2022-11-11T16:15:07;100934.66;;;6.45;93.32
70302;BME280;57706;56.326;43.882;2022-11-11T16:17:54;100939.41;;;6.40;93.33
70302;BME280;57706;56.326;43.882;2022-11-11T16:20:57;100937.13;;;6.46;92.83
70302;BME280;57706;56.326;43.882;2022-11-11T16:23:46;100944.50;;;6.41;92.85
70302;BME280;57706;56.326;43.882;2022-11-11T16:26:33;100933.69;;;6.34;93.46
70302;BME280;57706;56.326;43.882;2022-11-11T16:29:18;100931.41;;;6.53;92.48
70302;BME280;57706;56.326;43.882;2022-11-11T16:35:41;100928.94;;;6.40;93.11
70302;BME280;57706;56.326;43.882;2022-11-11T16:38:29;100922.06;;;6.39;93.45
70302;BME280;57706;56.326;43.882;2022-11-11T16:41:29;100921.13;;;6.40;93.60
70302;BME280;57706;56.326;43.882;2022-11-11T16:44:33;100919.31;;;6.52;92.92